sensor_id;sensor_type;location;lat;lon;timestamp;pressure;altitude;pressure_sealevel;temperature;humidity
44979;BME280;67464;52.438;-1.904;2023-03-04T00:00:00;101656.69;;;7.24;52.87
44979;BME280;67464;52.438;-1.904;2023-03-04T00:02:26;101658.50;;;6.35;52.23
44979;BME280;67464;52.438;-1.904;2023-03-04T00:04:51;101660.66;;;6.34;52.43
44979;BME280;67464;52.438;-1.904;2023-03-04T00:07:17;101662.85;;;6.32;51.55
44979;BME280;67464;52.438;-1.904;2023-03-04T00:09:43;101659.17;;;5.22;53.04
44979;BME280;67464;52.438;-1.904;2023-03-04T00:12:08;101657.21;;;5.64;54.09
44979;BME280;67464;52.438;-1.904;2023-03-04T00:14:33;101655.84;;;5.35;54.67
44979;BME280;67464;52.438;-1.904;2023-03-04T00:16:59;101656.93;;;5.34;54.49
44979;BME280;67464;52.438;-1.904;2023-03-04T00:19:25;101659.29;;;4.69;53.04
44979;BME280;67464;52.438;-1.904;2023-03-04T00:21:50;101662.67;;;4.69;55.52
44979;BME280;67464;52.438;-1.904;2023-03-04T00:24:16;101661.60;;;4.97;56.21
44979;BME280;67464;52.438;-1.904;2023-03-04T00:26:41;101662.27;;;5.30;58.91
44979;BME280;67464;52.438;-1.904;2023-03-04T00:29:07;101658.71;;;5.97;54.13
44979;BME280;67464;52.438;-1.904;2023-03-04T00:31:33;101660.17;;;5.58;51.74
44979;BME280;67464;52.438;-1.904;2023-03-04T00:33:59;101660.06;;;6.56;54.64
44979;BME280;67464;52.438;-1.904;2023-03-04T00:36:24;101659.25;;;6.05;51.39
44979;BME280;67464;52.438;-1.904;2023-03-04T00:38:50;101662.60;;;6.33;50.80
44979;BME280;67464;52.438;-1.904;2023-03-04T00:41:16;101665.54;;;6.32;49.91
44979;BME280;67464;52.438;-1.904;2023-03-04T00:43:41;101665.22;;;5.68;53.51
44979;BME280;67464;52.438;-1.904;2023-03-04T00:46:07;101667.30;;;5.50;52.10
44979;BME280;67464;52.438;-1.904;2023-03-04T00:48:32;101673.10;;;4.15;56.98
44979;BME280;67464;52.438;-1.904;2023-03-04T00:50:58;101674.19;;;3.88;55.46
44979;BME280;67464;52.438;-1.904;2023-03-04T00:53:23;101669.41;;;4.28;58.52
44979;BME280;67464;52.438;-1.904;2023-03-04T00:55:49;101665.92;;;4.95;55.36
44979;BME280;67464;52.438;-1.904;2023-03-04T00:58:14;101672.19;;;5.38;56.78
44979;BME280;67464;52.438;-1.904;2023-03-04T01:00:40;101670.73;;;4.95;53.09
44979;BME280;67464;52.438;-1.904;2023-03-04T01:03:06;101671.37;;;5.34;53.97
44979;BME280;67464;52.438;-1.904;2023-03-04T01:05:31;101667.11;;;5.99;52.51
44979;BME280;67464;52.438;-1.904;2023-03-04T01:07:56;101673.35;;;6.78;54.85
44979;BME280;67464;52.438;-1.904;2023-03-04T01:10:22;101664.34;;;6.48;51.34
44979;BME280;67464;52.438;-1.904;2023-03-04T01:12:47;101659.08;;;5.57;54.63
44979;BME280;67464;52.438;-1.904;2023-03-04T01:15:13;101656.11;;;5.93;52.21
44979;BME280;67464;52.438;-1.904;2023-03-04T01:17:38;101651.41;;;5.44;51.18
44979;BME280;67464;52.438;-1.904;2023-03-04T01:20:04;101657.53;;;5.18;53.70
44979;BME280;67464;52.438;-1.904;2023-03-04T01:22:28;101662.04;;;4.03;57.15
44979;BME280;67464;52.438;-1.904;2023-03-04T01:24:54;101652.71;;;4.67;55.90
44979;BME280;67464;52.438;-1.904;2023-03-04T01:27:19;101650.16;;;4.39;55.64
44979;BME280;67464;52.438;-1.904;2023-03-04T01:29:44;101650.64;;;4.50;55.81
44979;BME280;67464;52.438;-1.904;2023-03-04T01:32:09;101648.30;;;3.60;58.28
44979;BME280;67464;52.438;-1.904;2023-03-04T01:34:34;101647.41;;;4.27;60.19
44979;BME280;67464;52.438;-1.904;2023-03-04T01:37:00;101644.89;;;4.32;56.64
44979;BME280;67464;52.438;-1.904;2023-03-04T01:39:25;101640.94;;;5.88;55.60
44979;BME280;67464;52.438;-1.904;2023-03-04T01:41:51;101637.87;;;5.36;53.73
44979;BME280;67464;52.438;-1.904;2023-03-04T01:44:16;101638.05;;;5.13;52.64
44979;BME280;67464;52.438;-1.904;2023-03-04T01:46:46;101631.80;;;5.56;55.04
44979;BME280;67464;52.438;-1.904;2023-03-04T01:49:09;101632.22;;;5.61;53.78
44979;BME280;67464;52.438;-1.904;2023-03-04T01:51:33;101628.52;;;5.54;55.75
44979;BME280;67464;52.438;-1.904;2023-03-04T01:53:59;101630.84;;;4.32;59.73
44979;BME280;67464;52.438;-1.904;2023-03-04T01:56:28;101630.12;;;4.40;59.06
44979;BME280;67464;52.438;-1.904;2023-03-04T02:01:15;101628.63;;;3.45;59.89
44979;BME280;67464;52.438;-1.904;2023-03-04T02:03:41;101631.78;;;4.98;62.40
44979;BME280;67464;52.438;-1.904;2023-03-04T02:06:06;101629.52;;;4.83;57.99
44979;BME280;67464;52.438;-1.904;2023-03-04T02:08:33;101626.71;;;5.24;56.10
44979;BME280;67464;52.438;-1.904;2023-03-04T02:10:58;101621.24;;;5.19;56.12
44979;BME280;67464;52.438;-1.904;2023-03-04T02:13:23;101618.96;;;4.94;57.09
44979;BME280;67464;52.438;-1.904;2023-03-04T02:15:49;101623.57;;;4.43;55.01
44979;BME280;67464;52.438;-1.904;2023-03-04T02:18:16;101620.02;;;5.54;56.23
44979;BME280;67464;52.438;-1.904;2023-03-04T02:20:46;101617.27;;;5.86;53.80
44979;BME280;67464;52.438;-1.904;2023-03-04T02:23:08;101616.43;;;6.49;54.76
44979;BME280;67464;52.438;-1.904;2023-03-04T02:25:35;101613.75;;;6.02;55.01
44979;BME280;67464;52.438;-1.904;2023-03-04T02:27:56;101613.32;;;5.59;56.31
44979;BME280;67464;52.438;-1.904;2023-03-04T02:30:23;101613.08;;;4.99;57.81
44979;BME280;67464;52.438;-1.904;2023-03-04T02:32:47;101617.66;;;5.39;59.40
44979;BME280;67464;52.438;-1.904;2023-03-04T02:35:15;101616.42;;;5.51;55.66
44979;BME280;67464;52.438;-1.904;2023-03-04T02:37:38;101616.35;;;5.40;57.19
44979;BME280;67464;52.438;-1.904;2023-03-04T02:40:05;101616.06;;;5.03;57.53
44979;BME280;67464;52.438;-1.904;2023-03-04T02:42:29;101618.63;;;4.76;59.40
44979;BME280;67464;52.438;-1.904;2023-03-04T02:44:59;101622.02;;;4.16;60.61
44979;BME280;67464;52.438;-1.904;2023-03-04T02:47:19;101620.58;;;4.25;62.09
44979;BME280;67464;52.438;-1.904;2023-03-04T02:49:45;101620.60;;;4.26;63.10
44979;BME280;67464;52.438;-1.904;2023-03-04T02:52:14;101619.22;;;5.13;57.43
44979;BME280;67464;52.438;-1.904;2023-03-04T02:54:37;101617.58;;;5.01;58.51
44979;BME280;67464;52.438;-1.904;2023-03-04T02:57:04;101614.20;;;4.54;58.08
44979;BME280;67464;52.438;-1.904;2023-03-04T02:59:28;101611.43;;;5.12;55.08
44979;BME280;67464;52.438;-1.904;2023-03-04T03:01:53;101608.22;;;5.09;57.74
44979;BME280;67464;52.438;-1.904;2023-03-04T03:04:19;101609.15;;;5.17;55.28
44979;BME280;67464;52.438;-1.904;2023-03-04T03:06:43;101604.85;;;4.99;55.96
44979;BME280;67464;52.438;-1.904;2023-03-04T03:09:08;101601.00;;;5.79;55.24
44979;BME280;67464;52.438;-1.904;2023-03-04T03:11:34;101598.77;;;5.48;53.61
44979;BME280;67464;52.438;-1.904;2023-03-04T03:14:00;101593.82;;;6.02;56.29
44979;BME280;67464;52.438;-1.904;2023-03-04T03:16:26;101593.72;;;5.74;54.42
44979;BME280;67464;52.438;-1.904;2023-03-04T03:18:51;101596.57;;;6.22;53.84
44979;BME280;67464;52.438;-1.904;2023-03-04T03:21:16;101596.97;;;5.37;55.59
44979;BME280;67464;52.438;-1.904;2023-03-04T03:23:41;101594.68;;;5.48;54.95
44979;BME280;67464;52.438;-1.904;2023-03-04T03:26:07;101594.58;;;5.59;58.00
44979;BME280;67464;52.438;-1.904;2023-03-04T03:28:32;101592.34;;;6.45;57.80
44979;BME280;67464;52.438;-1.904;2023-03-04T03:30:58;101580.77;;;5.52;54.12
44979;BME280;67464;52.438;-1.904;2023-03-04T03:33:23;101581.42;;;5.58;52.57
44979;BME280;67464;52.438;-1.904;2023-03-04T03:35:48;101584.67;;;4.93;56.91
44979;BME280;67464;52.438;-1.904;2023-03-04T03:38:14;101585.50;;;5.37;55.52
44979;BME280;67464;52.438;-1.904;2023-03-04T03:40:39;101581.20;;;4.90;56.11
44979;BME280;67464;52.438;-1.904;2023-03-04T03:43:05;101578.77;;;5.22;53.53
44979;BME280;67464;52.438;-1.904;2023-03-04T03:45:31;101578.01;;;5.77;53.87
44979;BME280;67464;52.438;-1.904;2023-03-04T03:47:56;101576.44;;;5.85;52.64
44979;BME280;67464;52.438;-1.904;2023-03-04T03:50:22;101578.82;;;5.68;52.69
44979;BME280;67464;52.438;-1.904;2023-03-04T03:52:48;101580.76;;;6.04;53.02
44979;BME280;67464;52.438;-1.904;2023-03-04T03:55:13;101579.13;;;4.34;52.51
44979;BME280;67464;52.438;-1.904;2023-03-04T03:57:38;101580.66;;;4.37;54.23
44979;BME280;67464;52.438;-1.904;2023-03-04T04:00:05;101580.32;;;4.65;56.62
44979;BME280;67464;52.438;-1.904;2023-03-04T04:02:29;101576.98;;;5.52;56.33
44979;BME280;67464;52.438;-1.904;2023-03-04T04:04:54;101576.27;;;5.17;54.72
44979;BME280;67464;52.438;-1.904;2023-03-04T04:07:19;101579.14;;;5.13;53.86
44979;BME280;67464;52.438;-1.904;2023-03-04T04:09:44;101578.42;;;5.02;52.91
44979;BME280;67464;52.438;-1.904;2023-03-04T04:12:12;101580.96;;;4.46;57.02
44979;BME280;67464;52.438;-1.904;2023-03-04T04:14:35;101579.89;;;4.85;55.16
44979;BME280;67464;52.438;-1.904;2023-03-04T04:17:01;101577.90;;;4.33;56.72
44979;BME280;67464;52.438;-1.904;2023-03-04T04:19:26;101580.65;;;4.09;57.35
44979;BME280;67464;52.438;-1.904;2023-03-04T04:21:50;101580.50;;;3.88;57.92
44979;BME280;67464;52.438;-1.904;2023-03-04T04:24:16;101580.15;;;4.65;56.58
44979;BME280;67464;52.438;-1.904;2023-03-04T04:26:41;101583.67;;;4.53;57.88
44979;BME280;67464;52.438;-1.904;2023-03-04T04:29:07;101582.98;;;4.47;57.03
44979;BME280;67464;52.438;-1.904;2023-03-04T04:31:31;101591.59;;;4.38;57.05
44979;BME280;67464;52.438;-1.904;2023-03-04T04:33:57;101592.86;;;3.96;56.98
44979;BME280;67464;52.438;-1.904;2023-03-04T04:36:22;101592.21;;;3.62;58.34
44979;BME280;67464;52.438;-1.904;2023-03-04T04:38:48;101598.11;;;3.84;58.43
44979;BME280;67464;52.438;-1.904;2023-03-04T04:41:18;101601.76;;;3.94;57.19
44979;BME280;67464;52.438;-1.904;2023-03-04T04:43:39;101600.30;;;4.28;56.59
44979;BME280;67464;52.438;-1.904;2023-03-04T04:46:04;101602.01;;;4.71;58.81
44979;BME280;67464;52.438;-1.904;2023-03-04T04:48:30;101601.24;;;4.66;54.86
44979;BME280;67464;52.438;-1.904;2023-03-04T04:50:56;101607.53;;;4.28;57.02
44979;BME280;67464;52.438;-1.904;2023-03-04T04:53:21;101600.50;;;3.57;55.45
44979;BME280;67464;52.438;-1.904;2023-03-04T04:55:47;101599.57;;;3.65;55.69
44979;BME280;67464;52.438;-1.904;2023-03-04T04:58:12;101601.94;;;4.34;56.32
44979;BME280;67464;52.438;-1.904;2023-03-04T05:00:38;101603.26;;;5.22;56.97
44979;BME280;67464;52.438;-1.904;2023-03-04T05:03:04;101603.08;;;5.79;55.52
44979;BME280;67464;52.438;-1.904;2023-03-04T05:05:29;101604.59;;;6.27;53.21
44979;BME280;67464;52.438;-1.904;2023-03-04T05:07:55;101602.80;;;6.21;51.73
44979;BME280;67464;52.438;-1.904;2023-03-04T05:10:20;101602.27;;;5.97;53.32
44979;BME280;67464;52.438;-1.904;2023-03-04T05:12:45;101604.54;;;5.01;54.45
44979;BME280;67464;52.438;-1.904;2023-03-04T05:15:11;101605.97;;;5.15;55.63
44979;BME280;67464;52.438;-1.904;2023-03-04T05:17:37;101605.39;;;5.64;52.28
44979;BME280;67464;52.438;-1.904;2023-03-04T05:20:02;101609.02;;;6.42;54.38
44979;BME280;67464;52.438;-1.904;2023-03-04T05:22:27;101611.89;;;6.55;52.69
44979;BME280;67464;52.438;-1.904;2023-03-04T05:24:53;101608.83;;;5.21;53.89
44979;BME280;67464;52.438;-1.904;2023-03-04T05:27:18;101609.26;;;5.88;53.61
44979;BME280;67464;52.438;-1.904;2023-03-04T05:29:44;101606.44;;;5.10;53.40
44979;BME280;67464;52.438;-1.904;2023-03-04T05:32:09;101609.42;;;5.88;51.24
44979;BME280;67464;52.438;-1.904;2023-03-04T05:34:35;101610.50;;;5.59;54.67
44979;BME280;67464;52.438;-1.904;2023-03-04T05:37:01;101607.20;;;5.91;52.33
44979;BME280;67464;52.438;-1.904;2023-03-04T05:39:26;101608.88;;;5.85;53.01
44979;BME280;67464;52.438;-1.904;2023-03-04T05:41:51;101613.88;;;6.38;53.12
44979;BME280;67464;52.438;-1.904;2023-03-04T05:44:17;101611.50;;;6.64;50.91
44979;BME280;67464;52.438;-1.904;2023-03-04T05:46:42;101613.06;;;6.93;49.29
44979;BME280;67464;52.438;-1.904;2023-03-04T05:49:07;101611.17;;;7.13;51.31
44979;BME280;67464;52.438;-1.904;2023-03-04T05:51:33;101609.51;;;6.95;50.12
44979;BME280;67464;52.438;-1.904;2023-03-04T05:53:58;101605.58;;;7.09;51.40
44979;BME280;67464;52.438;-1.904;2023-03-04T05:56:23;101600.89;;;7.40;49.02
44979;BME280;67464;52.438;-1.904;2023-03-04T05:58:49;101600.40;;;7.30;47.58
44979;BME280;67464;52.438;-1.904;2023-03-04T06:01:15;101604.28;;;5.29;50.45
44979;BME280;67464;52.438;-1.904;2023-03-04T06:03:40;101607.24;;;5.68;49.87
44979;BME280;67464;52.438;-1.904;2023-03-04T06:06:06;101605.79;;;5.99;49.69
44979;BME280;67464;52.438;-1.904;2023-03-04T06:08:31;101609.15;;;5.88;49.39
44979;BME280;67464;52.438;-1.904;2023-03-04T06:10:56;101613.80;;;5.58;53.50
44979;BME280;67464;52.438;-1.904;2023-03-04T06:13:22;101614.61;;;5.85;50.96
44979;BME280;67464;52.438;-1.904;2023-03-04T06:15:53;101614.52;;;5.47;53.30
44979;BME280;67464;52.438;-1.904;2023-03-04T06:18:12;101611.46;;;5.70;51.60
44979;BME280;67464;52.438;-1.904;2023-03-04T06:20:38;101618.97;;;5.33;54.47
44979;BME280;67464;52.438;-1.904;2023-03-04T06:23:04;101621.16;;;6.32;52.53
44979;BME280;67464;52.438;-1.904;2023-03-04T06:25:30;101624.20;;;6.60;50.22
44979;BME280;67464;52.438;-1.904;2023-03-04T06:27:55;101616.46;;;7.17;52.68
44979;BME280;67464;52.438;-1.904;2023-03-04T06:30:21;101613.58;;;7.32;47.80
44979;BME280;67464;52.438;-1.904;2023-03-04T06:32:46;101617.35;;;7.64;50.48
44979;BME280;67464;52.438;-1.904;2023-03-04T06:35:12;101617.26;;;7.47;48.08
44979;BME280;67464;52.438;-1.904;2023-03-04T06:37:37;101623.15;;;6.41;48.64
44979;BME280;67464;52.438;-1.904;2023-03-04T06:40:03;101623.16;;;6.40;49.84
44979;BME280;67464;52.438;-1.904;2023-03-04T06:42:27;101626.32;;;6.17;49.70
44979;BME280;67464;52.438;-1.904;2023-03-04T06:44:53;101632.49;;;4.72;50.37
44979;BME280;67464;52.438;-1.904;2023-03-04T06:47:18;101637.08;;;5.16;50.99
44979;BME280;67464;52.438;-1.904;2023-03-04T06:49:44;101634.67;;;5.49;52.15
44979;BME280;67464;52.438;-1.904;2023-03-04T06:52:09;101633.85;;;5.95;53.55
44979;BME280;67464;52.438;-1.904;2023-03-04T06:54:35;101637.74;;;6.39;51.78
44979;BME280;67464;52.438;-1.904;2023-03-04T06:57:01;101636.18;;;5.72;52.57
44979;BME280;67464;52.438;-1.904;2023-03-04T06:59:26;101638.66;;;6.37;51.58
44979;BME280;67464;52.438;-1.904;2023-03-04T07:01:53;101637.58;;;6.02;49.73
44979;BME280;67464;52.438;-1.904;2023-03-04T07:04:17;101639.97;;;5.73;52.04
44979;BME280;67464;52.438;-1.904;2023-03-04T07:06:43;101640.03;;;6.12;49.56
44979;BME280;67464;52.438;-1.904;2023-03-04T07:09:08;101645.07;;;6.85;52.74
44979;BME280;67464;52.438;-1.904;2023-03-04T07:11:34;101647.49;;;6.71;48.97
44979;BME280;67464;52.438;-1.904;2023-03-04T07:13:59;101651.08;;;6.69;49.33
44979;BME280;67464;52.438;-1.904;2023-03-04T07:16:24;101647.32;;;6.49;50.32
44979;BME280;67464;52.438;-1.904;2023-03-04T07:18:49;101647.61;;;5.94;50.64
44979;BME280;67464;52.438;-1.904;2023-03-04T07:21:16;101651.49;;;5.87;51.80
44979;BME280;67464;52.438;-1.904;2023-03-04T07:23:40;101652.15;;;5.88;51.27
44979;BME280;67464;52.438;-1.904;2023-03-04T07:26:06;101651.45;;;6.46;50.96
44979;BME280;67464;52.438;-1.904;2023-03-04T07:28:32;101649.67;;;5.91;50.59
44979;BME280;67464;52.438;-1.904;2023-03-04T07:31:04;101653.74;;;5.49;49.75
44979;BME280;67464;52.438;-1.904;2023-03-04T07:33:22;101653.66;;;5.52;50.37
44979;BME280;67464;52.438;-1.904;2023-03-04T07:35:47;101656.63;;;5.02;53.61
44979;BME280;67464;52.438;-1.904;2023-03-04T07:38:13;101656.31;;;5.67;53.49
44979;BME280;67464;52.438;-1.904;2023-03-04T07:40:39;101650.50;;;5.75;51.71
44979;BME280;67464;52.438;-1.904;2023-03-04T07:43:05;101651.40;;;6.63;48.47
44979;BME280;67464;52.438;-1.904;2023-03-04T07:45:30;101648.90;;;6.65;47.93
44979;BME280;67464;52.438;-1.904;2023-03-04T07:47:57;101651.76;;;6.74;50.80
44979;BME280;67464;52.438;-1.904;2023-03-04T07:50:21;101652.83;;;6.84;47.42
44979;BME280;67464;52.438;-1.904;2023-03-04T07:52:47;101654.50;;;5.36;50.79
44979;BME280;67464;52.438;-1.904;2023-03-04T07:55:13;101654.80;;;5.78;52.30
44979;BME280;67464;52.438;-1.904;2023-03-04T07:57:38;101655.34;;;5.02;52.54
44979;BME280;67464;52.438;-1.904;2023-03-04T08:00:04;101657.97;;;5.74;52.97
44979;BME280;67464;52.438;-1.904;2023-03-04T08:02:28;101659.09;;;5.85;52.40
44979;BME280;67464;52.438;-1.904;2023-03-04T08:04:54;101659.05;;;5.01;52.43
44979;BME280;67464;52.438;-1.904;2023-03-04T08:07:20;101659.29;;;5.48;51.76
44979;BME280;67464;52.438;-1.904;2023-03-04T08:09:45;101663.33;;;5.65;50.80
44979;BME280;67464;52.438;-1.904;2023-03-04T08:12:11;101665.86;;;4.93;51.84
44979;BME280;67464;52.438;-1.904;2023-03-04T08:14:36;101668.44;;;4.81;53.50
44979;BME280;67464;52.438;-1.904;2023-03-04T08:17:02;101668.18;;;4.31;52.54
44979;BME280;67464;52.438;-1.904;2023-03-04T08:19:28;101668.09;;;4.21;53.33
44979;BME280;67464;52.438;-1.904;2023-03-04T08:21:53;101670.42;;;3.65;59.40
44979;BME280;67464;52.438;-1.904;2023-03-04T08:24:19;101668.52;;;4.24;54.91
44979;BME280;67464;52.438;-1.904;2023-03-04T08:26:46;101672.02;;;4.43;54.59
44979;BME280;67464;52.438;-1.904;2023-03-04T08:29:11;101672.06;;;4.55;55.39
44979;BME280;67464;52.438;-1.904;2023-03-04T08:31:34;101670.27;;;4.38;54.43
44979;BME280;67464;52.438;-1.904;2023-03-04T08:34:01;101673.73;;;4.65;54.01
44979;BME280;67464;52.438;-1.904;2023-03-04T08:36:25;101675.03;;;3.67;59.01
44979;BME280;67464;52.438;-1.904;2023-03-04T08:38:50;101674.48;;;4.50;55.33
44979;BME280;67464;52.438;-1.904;2023-03-04T08:41:16;101675.43;;;5.34;54.23
44979;BME280;67464;52.438;-1.904;2023-03-04T08:43:43;101671.81;;;4.84;53.46
44979;BME280;67464;52.438;-1.904;2023-03-04T08:46:08;101676.86;;;4.90;56.17
44979;BME280;67464;52.438;-1.904;2023-03-04T08:48:33;101678.11;;;4.64;53.69
44979;BME280;67464;52.438;-1.904;2023-03-04T08:50:58;101675.86;;;4.45;51.91
44979;BME280;67464;52.438;-1.904;2023-03-04T08:53:24;101674.79;;;5.20;54.25
44979;BME280;67464;52.438;-1.904;2023-03-04T08:55:50;101671.98;;;4.72;53.21
44979;BME280;67464;52.438;-1.904;2023-03-04T08:58:14;101674.30;;;4.59;53.63
44979;BME280;67464;52.438;-1.904;2023-03-04T09:00:42;101678.47;;;4.04;54.13
44979;BME280;67464;52.438;-1.904;2023-03-04T09:03:05;101673.76;;;4.96;51.22
44979;BME280;67464;52.438;-1.904;2023-03-04T09:05:31;101671.55;;;5.17;52.45
44979;BME280;67464;52.438;-1.904;2023-03-04T09:07:56;101675.60;;;4.22;52.99
44979;BME280;67464;52.438;-1.904;2023-03-04T09:10:22;101671.25;;;3.83;53.85
44979;BME280;67464;52.438;-1.904;2023-03-04T09:12:46;101674.81;;;4.75;53.94
44979;BME280;67464;52.438;-1.904;2023-03-04T09:15:12;101681.09;;;3.39;55.42
44979;BME280;67464;52.438;-1.904;2023-03-04T09:17:38;101678.84;;;4.99;56.91
44979;BME280;67464;52.438;-1.904;2023-03-04T09:20:05;101676.10;;;5.47;50.35
44979;BME280;67464;52.438;-1.904;2023-03-04T09:22:29;101676.17;;;5.57;52.69
44979;BME280;67464;52.438;-1.904;2023-03-04T09:24:54;101679.71;;;4.58;51.22
44979;BME280;67464;52.438;-1.904;2023-03-04T09:27:19;101680.72;;;4.21;52.34
44979;BME280;67464;52.438;-1.904;2023-03-04T09:29:45;101680.33;;;5.10;52.74
44979;BME280;67464;52.438;-1.904;2023-03-04T09:32:11;101681.30;;;4.55;52.17
44979;BME280;67464;52.438;-1.904;2023-03-04T09:34:37;101682.29;;;5.50;51.32
44979;BME280;67464;52.438;-1.904;2023-03-04T09:37:02;101682.82;;;4.54;54.82
44979;BME280;67464;52.438;-1.904;2023-03-04T09:39:27;101677.55;;;5.12;53.06
44979;BME280;67464;52.438;-1.904;2023-03-04T09:41:55;101672.76;;;5.58;51.37
44979;BME280;67464;52.438;-1.904;2023-03-04T09:44:23;101675.89;;;6.56;50.62
44979;BME280;67464;52.438;-1.904;2023-03-04T09:46:43;101675.10;;;6.75;47.71
44979;BME280;67464;52.438;-1.904;2023-03-04T09:49:10;101673.61;;;6.11;49.93
44979;BME280;67464;52.438;-1.904;2023-03-04T09:51:43;101674.86;;;6.09;49.78
44979;BME280;67464;52.438;-1.904;2023-03-04T09:54:06;101674.81;;;6.35;48.36
44979;BME280;67464;52.438;-1.904;2023-03-04T09:56:26;101680.34;;;6.53;50.33
44979;BME280;67464;52.438;-1.904;2023-03-04T09:58:57;101679.15;;;7.05;48.04
44979;BME280;67464;52.438;-1.904;2023-03-04T10:01:21;101674.43;;;6.74;47.13
44979;BME280;67464;52.438;-1.904;2023-03-04T10:03:44;101672.18;;;6.54;46.40
44979;BME280;67464;52.438;-1.904;2023-03-04T10:06:10;101677.20;;;6.50;48.93
44979;BME280;67464;52.438;-1.904;2023-03-04T10:08:39;101673.56;;;5.66;50.98
44979;BME280;67464;52.438;-1.904;2023-03-04T10:11:01;101666.61;;;6.05;50.18
44979;BME280;67464;52.438;-1.904;2023-03-04T10:13:30;101666.71;;;5.32;48.05
44979;BME280;67464;52.438;-1.904;2023-03-04T10:15:50;101664.35;;;5.37;51.50
44979;BME280;67464;52.438;-1.904;2023-03-04T10:18:19;101665.81;;;6.54;52.61
44979;BME280;67464;52.438;-1.904;2023-03-04T10:20:50;101663.42;;;6.32;48.78
44979;BME280;67464;52.438;-1.904;2023-03-04T10:23:09;101661.39;;;5.86;48.35
44979;BME280;67464;52.438;-1.904;2023-03-04T10:25:32;101662.76;;;6.19;50.49
44979;BME280;67464;52.438;-1.904;2023-03-04T10:27:58;101660.87;;;6.54;48.28
44979;BME280;67464;52.438;-1.904;2023-03-04T10:30:35;101666.90;;;6.14;48.79
44979;BME280;67464;52.438;-1.904;2023-03-04T10:32:48;101667.14;;;5.87;52.63
44979;BME280;67464;52.438;-1.904;2023-03-04T10:35:14;101665.91;;;6.04;48.09
44979;BME280;67464;52.438;-1.904;2023-03-04T10:37:44;101666.38;;;6.90;49.66
44979;BME280;67464;52.438;-1.904;2023-03-04T10:42:30;101668.73;;;6.84;47.97
44979;BME280;67464;52.438;-1.904;2023-03-04T10:44:57;101670.41;;;6.84;47.29
44979;BME280;67464;52.438;-1.904;2023-03-04T10:47:23;101671.86;;;6.65;48.18
44979;BME280;67464;52.438;-1.904;2023-03-04T10:49:51;101672.90;;;6.58;47.70
44979;BME280;67464;52.438;-1.904;2023-03-04T10:52:20;101671.38;;;6.19;47.95
44979;BME280;67464;52.438;-1.904;2023-03-04T10:54:41;101668.41;;;5.87;49.69
44979;BME280;67464;52.438;-1.904;2023-03-04T10:57:04;101667.99;;;6.68;47.64
44979;BME280;67464;52.438;-1.904;2023-03-04T10:59:38;101659.21;;;7.33;45.34
44979;BME280;67464;52.438;-1.904;2023-03-04T11:01:54;101653.14;;;7.13;46.12
44979;BME280;67464;52.438;-1.904;2023-03-04T11:04:22;101658.25;;;7.11;49.35
44979;BME280;67464;52.438;-1.904;2023-03-04T11:06:45;101655.24;;;7.52;48.75
44979;BME280;67464;52.438;-1.904;2023-03-04T11:09:20;101651.92;;;7.30;46.12
44979;BME280;67464;52.438;-1.904;2023-03-04T11:11:40;101653.13;;;6.71;47.73
44979;BME280;67464;52.438;-1.904;2023-03-04T11:14:09;101651.73;;;6.68;46.61
44979;BME280;67464;52.438;-1.904;2023-03-04T11:16:29;101647.47;;;6.55;48.48
44979;BME280;67464;52.438;-1.904;2023-03-04T11:18:53;101643.67;;;6.71;46.39
44979;BME280;67464;52.438;-1.904;2023-03-04T11:21:20;101644.37;;;6.85;46.56
44979;BME280;67464;52.438;-1.904;2023-03-04T11:23:46;101642.68;;;6.34;46.68
44979;BME280;67464;52.438;-1.904;2023-03-04T11:26:12;101637.64;;;7.00;45.61
44979;BME280;67464;52.438;-1.904;2023-03-04T11:28:40;101629.99;;;7.54;44.70
44979;BME280;67464;52.438;-1.904;2023-03-04T11:31:03;101634.56;;;6.80;45.98
44979;BME280;67464;52.438;-1.904;2023-03-04T11:33:31;101627.94;;;6.14;48.17
44979;BME280;67464;52.438;-1.904;2023-03-04T11:36:02;101632.75;;;6.40;46.41
44979;BME280;67464;52.438;-1.904;2023-03-04T11:38:18;101632.07;;;6.71;47.68
44979;BME280;67464;52.438;-1.904;2023-03-04T11:40:45;101625.57;;;5.29;46.87
44979;BME280;67464;52.438;-1.904;2023-03-04T11:43:13;101628.11;;;5.86;48.24
44979;BME280;67464;52.438;-1.904;2023-03-04T11:45:50;101625.06;;;6.81;50.25
44979;BME280;67464;52.438;-1.904;2023-03-04T11:48:05;101612.09;;;7.35;45.57
44979;BME280;67464;52.438;-1.904;2023-03-04T11:50:29;101614.89;;;8.12;50.35
44979;BME280;67464;52.438;-1.904;2023-03-04T11:55:30;101606.73;;;7.45;46.56
44979;BME280;67464;52.438;-1.904;2023-03-04T11:57:48;101609.94;;;6.59;47.22
44979;BME280;67464;52.438;-1.904;2023-03-04T12:00:17;101605.57;;;6.41;46.37
44979;BME280;67464;52.438;-1.904;2023-03-04T12:02:38;101595.10;;;7.61;47.28
44979;BME280;67464;52.438;-1.904;2023-03-04T12:05:14;101594.33;;;7.96;46.17
44979;BME280;67464;52.438;-1.904;2023-03-04T12:09:59;101592.77;;;8.43;42.92
44979;BME280;67464;52.438;-1.904;2023-03-04T12:12:25;101590.72;;;8.56;43.66
44979;BME280;67464;52.438;-1.904;2023-03-04T12:14:42;101589.59;;;8.47;48.74
44979;BME280;67464;52.438;-1.904;2023-03-04T12:17:21;101582.21;;;8.38;45.28
44979;BME280;67464;52.438;-1.904;2023-03-04T12:19:38;101571.44;;;7.12;45.09
44979;BME280;67464;52.438;-1.904;2023-03-04T12:22:11;101569.58;;;6.41;47.41
44979;BME280;67464;52.438;-1.904;2023-03-04T12:24:30;101564.21;;;6.40;48.74
44979;BME280;67464;52.438;-1.904;2023-03-04T12:26:49;101552.48;;;7.44;47.26
44979;BME280;67464;52.438;-1.904;2023-03-04T12:29:14;101544.36;;;8.29;41.59
44979;BME280;67464;52.438;-1.904;2023-03-04T12:31:40;101541.92;;;8.80;43.47
44979;BME280;67464;52.438;-1.904;2023-03-04T12:36:36;101543.88;;;9.10;44.94
44979;BME280;67464;52.438;-1.904;2023-03-04T12:38:59;101547.53;;;7.82;43.85
44979;BME280;67464;52.438;-1.904;2023-03-04T12:41:28;101544.75;;;7.90;43.16
44979;BME280;67464;52.438;-1.904;2023-03-04T12:43:53;101542.15;;;8.05;44.13
44979;BME280;67464;52.438;-1.904;2023-03-04T12:46:20;101537.12;;;8.63;43.48
44979;BME280;67464;52.438;-1.904;2023-03-04T12:48:40;101536.37;;;8.41;43.52
44979;BME280;67464;52.438;-1.904;2023-03-04T12:51:12;101534.23;;;7.48;45.20